Current | Forecast
Updated: 12:00 PM JST on September 20, 2017
Observed at Nankishirahama, Japan
Temperature 81°F
Humidity 65%
Dew Point 68°F
Wind Variable at 4 mph
Pressure 29.86 in (Steady)
Conditions Mostly Cloudy
Visibility 6.2 miles
UV 5 out of 16
Clouds (FEW) : 2500 ft
Scattered Clouds (SCT) : 10000 ft
Mostly Cloudy (BKN) : 15000 ft
Yesterday's Maximum 82°F
Yesterday's Minimum 73°F approx.
Yesterday's Cooling Degree Days 13 approx.
Sunrise5:42 AM JST
Sunset5:56 PM JST
Moon Rise5:22 AM JST
Moon Set6:08 PM JST
Moon PhaseMoon Phase
Waning Crescent
Raw METARMETAR RJBD 200300Z VRB03KT 9999 FEW025 SCT100 BKN150 27/20 Q1011


Monday
. High: 70° F.
Tuesday
. High: 73° F.
Wednesday
. High: 69° F.
Thursday
. High: 71° F.
Friday
. High: 73° F.
Saturday
. High: 75° F.
Sunday
. High: 73° F.
Monday
. High: 73° F.

Units: English | Metric

Find the Weather for any City, State or Zipcode, or Country:

U.S. State List | Severe Weather | Tropical Storms | Ski Conditions
United States | Canada | Central America | South America | Asia | Europe | Australia | Africa | Islands

Weather Underground

© Copyright 2017
The Weather Company, LLC